AirNav   Everest Fuels
 
 1271 users online  

FL92 L M Hughey Heliport
Tampa, Florida, USA

GOING TO TAMPA?


FAA INFORMATION EFFECTIVE 05 DECEMBER 2019

Location

FAA Identifier: FL92
Lat/Long: 27-56-32.8500N 082-32-09.3200W
27-56.547500N 082-32.155333W
27.9424583,-82.5359222
(estimated)
Elevation: 27 ft. / 8 m (estimated)
Variation: 02W (1985)
From city: 2 miles W of TAMPA, FL
Time zone: UTC -5 (UTC -4 during Daylight Saving Time)
Zip code: 33609

Heliport Operations

Heliport use: Private use. Permission required prior to landing
Activation date: 12/1975
Control tower: no
ARTCC: MIAMI CENTER
FSS: SAINT PETERSBURG FLIGHT SERVICE STATION
Attendance: UNATNDD
Wind indicator: yes
Segmented circle: no

Heliport Communications

WX ASOS at TPA (2.0 nm N): PHONE 813-873-7228
WX AWOS-3 at TPF (5 nm E): 118.925 (813-251-6824)
WX ASOS at PIE (8 nm W): PHONE 727-531-3456
WX AWOS-3 at VDF (11 nm NE): 121.125 (813-630-0924)
WX ASOS at SPG (12 nm SW): 118.875 (727-821-4334)
WX AWOS-3P at CLW (12 nm W): 119.225 (727-449-2184)

Nearby radio navigation aids

VOR radial/distance  VOR name  Freq  Var
PIEr080/8.1ST PETERSBURG VORTAC116.4005W
LALr264/27.8LAKELAND VORTAC116.0001E
SRQr008/32.2SARASOTA VOR/DME117.0005W

 
NDB name  Hdg/Dist  Freq  Var  ID
COSME189/8.636805WTP - .--.
CAPOK115/9.436005WPI .--. ..

Heliport Services

Runway Information

Helipad H1

Dimensions: 50 x 50 ft. / 15 x 15 m
Surface: concrete
Latitude: 27-56.547500N
Longitude: 082-32.155333W
Elevation: 27.0 ft.
Traffic pattern: leftleft

Heliport Ownership and Management from official FAA records

Ownership: Privately-owned
Owner: L M HUGHEY
205 S. HOOVER ST
TAMPA, FL 33609
Phone 813-286-2323
Manager: RON HAMPTON
205 S. HOOVER ST SUITE 400
TAMPA, FL 33609
Phone 813-286-2323

Heliport Operational Statistics

Aircraft based on the field: 1
Helicopters: 1
    

Additional Remarks

FOR CD CTC TAMPA APCH AT 813-878-2528

Instrument Procedures

There are no published instrument procedures at FL92.

Some nearby airports with instrument procedures:

KTPA - Tampa International Airport (2 nm N)
KTPF - Peter O Knight Airport (5 nm E)
KMCF - MacDill Air Force Base (6 nm S)
KPIE - St Pete-Clearwater International Airport (8 nm W)
KVDF - Tampa Executive Airport (11 nm NE)
KSPG - Albert Whitted Airport (12 nm SW)
KCLW - Clearwater Air Park (12 nm W)
 
Loc | Ops | Rwys | IFR | FBO | Links
Com | Nav | Svcs | Stats | Notes


 
Area around FL92 (L M Hughey Heliport)
 
Road maps at: MapQuest Bing Google
 
Aerial photo
No photo
 
Sectional chart

 
Airport distance calculator
Flying to L M Hughey Heliport? Find the distance to fly.

From to FL92

Sunrise and sunset
Times for 05-Dec-2019
 Local
(UTC-5)
 Zulu
(UTC)
Morning civil twilight06:4311:43
Sunrise07:0812:08
Sunset17:3322:33
Evening civil twilight17:5922:59

Current date and time
Zulu (UTC)  05-Dec-2019 23:02:40
Local (UTC-5)  05-Dec-2019 18:02:40
 
METAR
KTPA 052253Z 03004KT 10SM BKN350 17/04 A3013 RMK AO2 SLP204 T01720039
KTPF 
5nm E 
052255Z AUTO 00000KT 10SM BKN110 17/06 A3014 RMK AO2
KMCF 
6nm S 
052156Z AUTO 00000KT 10SM CLR 18/06 A3011 RMK AO2 SLP199 T01830062 FZRANO $
KPIE 
8nm W 
052253Z 34006KT 10SM CLR 16/04 A3013 RMK AO2 SLP201 T01560044
KVDF 
11nm NE 
052255Z AUTO 00000KT 10SM CLR 12/08 A3014 RMK AO2
KSPG 
12nm SW 
052253Z 35004KT 10SM CLR 18/06 A3011 RMK AO2 SLP196 T01780061
KCLW 
12nm W 
052255Z AUTO 00000KT 10SM CLR 15/05 A3013 RMK AO2
KPCM 
20nm E 
052255Z AUTO 00000KT 10SM CLR 14/08 A3015 RMK AO2
TAF
KTPA 052115Z 0521/0624 VRB03KT P6SM BKN250 FM061800 22007KT P6SM SCT250
KMCF 
6nm S 
051700Z 0517/0623 VRB06KT 9999 FEW230 QNH3008INS TX20/0620Z TN14/0611Z
KPIE 
8nm W 
051721Z 0518/0618 02006KT P6SM BKN250 FM060000 04005KT P6SM BKN250 FM061500 12005KT P6SM SCT250
NOTAMs
Click for the latest NOTAMs
NOTAMs are issued by the DoD/FAA and will open in a separate window not controlled by AirNav.

 

 
 

Would you like to see your business listed on this page?

 If your business provides an interesting product or service to pilots, flight crews, aircraft, or users of the L M Hughey Heliport, you should consider listing it here.  To start the listing process, click on the button below
 
Add a business
 

Other Pages about L M Hughey Heliport

Update a link
 
Copyright © AirNav, LLC. All rights reserved. Privacy Policy  Contact